sensor_id;sensor_type;location;lat;lon;timestamp;P1;durP1;ratioP1;P2;durP2;ratioP2
21955;SDS011;11142;49.930;8.606;2024-01-06T00:00:55;4.50;;;2.42;;
21955;SDS011;11142;49.930;8.606;2024-01-06T00:03:24;3.58;;;2.40;;
21955;SDS011;11142;49.930;8.606;2024-01-06T00:05:52;3.92;;;2.30;;
21955;SDS011;11142;49.930;8.606;2024-01-06T00:08:20;5.57;;;2.53;;
21955;SDS011;11142;49.930;8.606;2024-01-06T00:10:48;5.30;;;2.72;;
21955;SDS011;11142;49.930;8.606;2024-01-06T00:13:18;6.93;;;2.58;;
21955;SDS011;11142;49.930;8.606;2024-01-06T00:15:46;5.20;;;2.17;;
21955;SDS011;11142;49.930;8.606;2024-01-06T00:18:15;4.32;;;2.40;;
21955;SDS011;11142;49.930;8.606;2024-01-06T00:20:43;5.90;;;2.70;;
21955;SDS011;11142;49.930;8.606;2024-01-06T00:23:11;11.13;;;2.67;;
21955;SDS011;11142;49.930;8.606;2024-01-06T00:25:39;5.40;;;2.40;;
21955;SDS011;11142;49.930;8.606;2024-01-06T00:28:07;6.57;;;2.97;;
21955;SDS011;11142;49.930;8.606;2024-01-06T00:30:37;5.72;;;2.40;;
21955;SDS011;11142;49.930;8.606;2024-01-06T00:33:06;5.93;;;2.67;;
21955;SDS011;11142;49.930;8.606;2024-01-06T00:35:34;7.97;;;2.92;;
21955;SDS011;11142;49.930;8.606;2024-01-06T00:38:02;4.55;;;2.85;;
21955;SDS011;11142;49.930;8.606;2024-01-06T00:40:31;8.48;;;3.10;;
21955;SDS011;11142;49.930;8.606;2024-01-06T00:42:59;4.15;;;2.35;;
21955;SDS011;11142;49.930;8.606;2024-01-06T00:45:27;4.80;;;2.42;;
21955;SDS011;11142;49.930;8.606;2024-01-06T00:48:01;7.00;;;2.42;;
21955;SDS011;11142;49.930;8.606;2024-01-06T00:50:29;3.50;;;2.40;;
21955;SDS011;11142;49.930;8.606;2024-01-06T00:52:57;6.18;;;2.10;;
21955;SDS011;11142;49.930;8.606;2024-01-06T00:55:25;8.85;;;3.03;;
21955;SDS011;11142;49.930;8.606;2024-01-06T00:57:53;7.55;;;2.78;;
21955;SDS011;11142;49.930;8.606;2024-01-06T01:00:24;6.60;;;3.22;;
21955;SDS011;11142;49.930;8.606;2024-01-06T01:02:54;7.68;;;2.63;;
21955;SDS011;11142;49.930;8.606;2024-01-06T01:05:23;4.70;;;2.67;;
21955;SDS011;11142;49.930;8.606;2024-01-06T01:07:52;4.70;;;2.40;;
21955;SDS011;11142;49.930;8.606;2024-01-06T01:10:20;6.30;;;2.67;;
21955;SDS011;11142;49.930;8.606;2024-01-06T01:12:48;4.25;;;2.10;;
21955;SDS011;11142;49.930;8.606;2024-01-06T01:15:16;4.35;;;2.50;;
21955;SDS011;11142;49.930;8.606;2024-01-06T01:17:44;5.72;;;2.40;;
21955;SDS011;11142;49.930;8.606;2024-01-06T01:20:12;5.50;;;2.65;;
21955;SDS011;11142;49.930;8.606;2024-01-06T01:22:42;8.48;;;2.78;;
21955;SDS011;11142;49.930;8.606;2024-01-06T01:25:10;6.68;;;2.67;;
21955;SDS011;11142;49.930;8.606;2024-01-06T01:27:40;6.65;;;2.67;;
21955;SDS011;11142;49.930;8.606;2024-01-06T01:30:09;6.47;;;2.40;;
21955;SDS011;11142;49.930;8.606;2024-01-06T01:32:38;4.32;;;2.65;;
21955;SDS011;11142;49.930;8.606;2024-01-06T01:35:07;7.35;;;2.65;;
21955;SDS011;11142;49.930;8.606;2024-01-06T01:37:35;5.85;;;2.30;;
21955;SDS011;11142;49.930;8.606;2024-01-06T01:40:06;6.63;;;2.97;;
21955;SDS011;11142;49.930;8.606;2024-01-06T01:42:35;6.15;;;2.50;;
21955;SDS011;11142;49.930;8.606;2024-01-06T01:45:04;5.88;;;2.47;;
21955;SDS011;11142;49.930;8.606;2024-01-06T01:47:32;5.03;;;2.88;;
21955;SDS011;11142;49.930;8.606;2024-01-06T01:50:00;5.93;;;2.75;;
21955;SDS011;11142;49.930;8.606;2024-01-06T01:52:31;5.43;;;2.50;;
21955;SDS011;11142;49.930;8.606;2024-01-06T01:54:59;5.63;;;2.50;;
21955;SDS011;11142;49.930;8.606;2024-01-06T01:57:30;10.00;;;2.90;;
21955;SDS011;11142;49.930;8.606;2024-01-06T01:59:58;3.78;;;2.25;;
21955;SDS011;11142;49.930;8.606;2024-01-06T02:02:49;8.23;;;2.58;;
21955;SDS011;11142;49.930;8.606;2024-01-06T02:05:19;4.90;;;2.55;;
21955;SDS011;11142;49.930;8.606;2024-01-06T02:07:47;4.60;;;2.60;;
21955;SDS011;11142;49.930;8.606;2024-01-06T02:10:17;7.63;;;2.75;;
21955;SDS011;11142;49.930;8.606;2024-01-06T02:12:47;5.40;;;2.70;;
21955;SDS011;11142;49.930;8.606;2024-01-06T02:15:16;5.63;;;2.35;;
21955;SDS011;11142;49.930;8.606;2024-01-06T02:17:46;12.68;;;2.78;;
21955;SDS011;11142;49.930;8.606;2024-01-06T02:20:16;9.98;;;2.72;;
21955;SDS011;11142;49.930;8.606;2024-01-06T02:22:47;9.65;;;2.60;;
21955;SDS011;11142;49.930;8.606;2024-01-06T02:25:16;5.10;;;2.80;;
21955;SDS011;11142;49.930;8.606;2024-01-06T02:27:46;9.00;;;2.50;;
21955;SDS011;11142;49.930;8.606;2024-01-06T02:30:15;6.47;;;2.28;;
21955;SDS011;11142;49.930;8.606;2024-01-06T02:32:43;9.80;;;2.45;;
21955;SDS011;11142;49.930;8.606;2024-01-06T02:35:11;13.23;;;2.47;;
21955;SDS011;11142;49.930;8.606;2024-01-06T02:37:39;13.50;;;2.58;;
21955;SDS011;11142;49.930;8.606;2024-01-06T02:40:10;5.28;;;2.17;;
21955;SDS011;11142;49.930;8.606;2024-01-06T02:42:40;5.72;;;2.20;;
21955;SDS011;11142;49.930;8.606;2024-01-06T02:45:08;5.38;;;2.78;;
21955;SDS011;11142;49.930;8.606;2024-01-06T02:47:37;7.65;;;2.28;;
21955;SDS011;11142;49.930;8.606;2024-01-06T02:50:05;5.70;;;2.78;;
21955;SDS011;11142;49.930;8.606;2024-01-06T02:52:34;8.82;;;2.38;;
21955;SDS011;11142;49.930;8.606;2024-01-06T02:55:03;7.30;;;3.03;;
21955;SDS011;11142;49.930;8.606;2024-01-06T02:57:33;6.15;;;2.45;;
21955;SDS011;11142;49.930;8.606;2024-01-06T03:00:02;6.47;;;2.58;;
21955;SDS011;11142;49.930;8.606;2024-01-06T03:02:31;7.43;;;2.92;;
21955;SDS011;11142;49.930;8.606;2024-01-06T03:05:02;6.82;;;2.75;;
21955;SDS011;11142;49.930;8.606;2024-01-06T03:07:32;6.47;;;2.10;;
21955;SDS011;11142;49.930;8.606;2024-01-06T03:10:00;4.82;;;2.35;;
21955;SDS011;11142;49.930;8.606;2024-01-06T03:12:30;5.18;;;2.60;;
21955;SDS011;11142;49.930;8.606;2024-01-06T03:15:00;13.50;;;3.40;;
21955;SDS011;11142;49.930;8.606;2024-01-06T03:17:28;7.30;;;2.60;;
21955;SDS011;11142;49.930;8.606;2024-01-06T03:19:58;5.25;;;2.83;;
21955;SDS011;11142;49.930;8.606;2024-01-06T03:22:26;5.05;;;2.50;;
21955;SDS011;11142;49.930;8.606;2024-01-06T03:24:54;8.23;;;2.60;;
21955;SDS011;11142;49.930;8.606;2024-01-06T03:27:23;4.93;;;2.22;;
21955;SDS011;11142;49.930;8.606;2024-01-06T03:29:51;4.38;;;2.17;;
21955;SDS011;11142;49.930;8.606;2024-01-06T03:32:21;6.45;;;2.75;;
21955;SDS011;11142;49.930;8.606;2024-01-06T03:34:49;6.97;;;2.50;;
21955;SDS011;11142;49.930;8.606;2024-01-06T03:37:17;5.00;;;2.10;;
21955;SDS011;11142;49.930;8.606;2024-01-06T03:39:45;5.68;;;2.67;;
21955;SDS011;11142;49.930;8.606;2024-01-06T03:42:13;9.60;;;2.58;;
21955;SDS011;11142;49.930;8.606;2024-01-06T03:44:41;6.78;;;2.83;;
21955;SDS011;11142;49.930;8.606;2024-01-06T03:47:10;5.55;;;2.45;;
21955;SDS011;11142;49.930;8.606;2024-01-06T03:49:40;7.00;;;2.78;;
21955;SDS011;11142;49.930;8.606;2024-01-06T03:52:08;4.47;;;2.70;;
21955;SDS011;11142;49.930;8.606;2024-01-06T03:54:36;4.47;;;2.80;;
21955;SDS011;11142;49.930;8.606;2024-01-06T03:57:05;3.13;;;2.00;;
21955;SDS011;11142;49.930;8.606;2024-01-06T03:59:33;8.95;;;2.70;;
21955;SDS011;11142;49.930;8.606;2024-01-06T04:02:02;5.07;;;2.42;;
21955;SDS011;11142;49.930;8.606;2024-01-06T04:04:31;7.90;;;2.67;;
21955;SDS011;11142;49.930;8.606;2024-01-06T04:07:01;3.47;;;2.30;;
21955;SDS011;11142;49.930;8.606;2024-01-06T04:09:30;7.75;;;2.17;;
21955;SDS011;11142;49.930;8.606;2024-01-06T04:11:59;9.52;;;2.50;;
21955;SDS011;11142;49.930;8.606;2024-01-06T04:14:28;6.05;;;3.22;;
21955;SDS011;11142;49.930;8.606;2024-01-06T04:16:57;7.22;;;2.85;;
21955;SDS011;11142;49.930;8.606;2024-01-06T04:19:25;9.27;;;3.00;;
21955;SDS011;11142;49.930;8.606;2024-01-06T04:21:53;7.15;;;2.50;;
21955;SDS011;11142;49.930;8.606;2024-01-06T04:24:23;10.85;;;2.70;;
21955;SDS011;11142;49.930;8.606;2024-01-06T04:26:52;9.18;;;2.85;;
21955;SDS011;11142;49.930;8.606;2024-01-06T04:29:20;3.95;;;2.50;;
21955;SDS011;11142;49.930;8.606;2024-01-06T04:31:50;9.73;;;3.03;;
21955;SDS011;11142;49.930;8.606;2024-01-06T04:34:19;5.35;;;2.70;;
21955;SDS011;11142;49.930;8.606;2024-01-06T04:36:47;6.55;;;2.72;;
21955;SDS011;11142;49.930;8.606;2024-01-06T04:39:16;4.53;;;2.65;;
21955;SDS011;11142;49.930;8.606;2024-01-06T04:41:46;9.20;;;2.92;;
21955;SDS011;11142;49.930;8.606;2024-01-06T04:44:14;5.57;;;2.58;;
21955;SDS011;11142;49.930;8.606;2024-01-06T04:46:43;6.35;;;3.05;;
21955;SDS011;11142;49.930;8.606;2024-01-06T04:49:11;8.20;;;3.08;;
21955;SDS011;11142;49.930;8.606;2024-01-06T04:51:39;5.65;;;3.28;;
21955;SDS011;11142;49.930;8.606;2024-01-06T04:54:08;7.25;;;2.75;;
21955;SDS011;11142;49.930;8.606;2024-01-06T04:56:36;6.28;;;2.72;;
21955;SDS011;11142;49.930;8.606;2024-01-06T04:59:06;10.38;;;2.97;;
21955;SDS011;11142;49.930;8.606;2024-01-06T05:01:34;5.82;;;2.85;;
21955;SDS011;11142;49.930;8.606;2024-01-06T05:04:03;5.82;;;2.90;;
21955;SDS011;11142;49.930;8.606;2024-01-06T05:06:32;5.53;;;2.50;;
21955;SDS011;11142;49.930;8.606;2024-01-06T05:09:00;5.75;;;2.83;;
21955;SDS011;11142;49.930;8.606;2024-01-06T05:11:29;5.53;;;2.97;;
21955;SDS011;11142;49.930;8.606;2024-01-06T05:13:57;3.83;;;2.53;;
21955;SDS011;11142;49.930;8.606;2024-01-06T05:16:27;8.05;;;3.33;;
21955;SDS011;11142;49.930;8.606;2024-01-06T05:18:55;6.63;;;2.70;;
21955;SDS011;11142;49.930;8.606;2024-01-06T05:21:24;3.67;;;2.28;;
21955;SDS011;11142;49.930;8.606;2024-01-06T05:23:54;4.32;;;2.50;;
21955;SDS011;11142;49.930;8.606;2024-01-06T05:26:21;4.53;;;2.88;;
21955;SDS011;11142;49.930;8.606;2024-01-06T05:28:51;5.43;;;2.80;;
21955;SDS011;11142;49.930;8.606;2024-01-06T05:31:20;15.02;;;2.78;;
21955;SDS011;11142;49.930;8.606;2024-01-06T05:33:49;7.18;;;2.58;;
21955;SDS011;11142;49.930;8.606;2024-01-06T05:36:18;6.57;;;2.65;;
21955;SDS011;11142;49.930;8.606;2024-01-06T05:38:46;6.07;;;2.60;;
21955;SDS011;11142;49.930;8.606;2024-01-06T05:41:19;8.00;;;2.45;;
21955;SDS011;11142;49.930;8.606;2024-01-06T05:43:47;2.97;;;2.42;;
21955;SDS011;11142;49.930;8.606;2024-01-06T05:46:20;10.00;;;3.13;;
21955;SDS011;11142;49.930;8.606;2024-01-06T05:48:51;9.32;;;3.28;;
21955;SDS011;11142;49.930;8.606;2024-01-06T05:51:19;7.53;;;2.53;;
21955;SDS011;11142;49.930;8.606;2024-01-06T05:53:49;5.25;;;2.67;;
21955;SDS011;11142;49.930;8.606;2024-01-06T05:56:23;5.95;;;2.70;;
21955;SDS011;11142;49.930;8.606;2024-01-06T05:58:52;6.43;;;2.60;;
21955;SDS011;11142;49.930;8.606;2024-01-06T06:01:21;3.55;;;2.45;;
21955;SDS011;11142;49.930;8.606;2024-01-06T06:03:51;6.60;;;2.47;;
21955;SDS011;11142;49.930;8.606;2024-01-06T06:06:19;8.57;;;2.85;;
21955;SDS011;11142;49.930;8.606;2024-01-06T06:08:47;8.32;;;3.20;;
21955;SDS011;11142;49.930;8.606;2024-01-06T06:11:16;5.43;;;3.00;;
21955;SDS011;11142;49.930;8.606;2024-01-06T06:13:44;6.18;;;3.00;;
21955;SDS011;11142;49.930;8.606;2024-01-06T06:16:13;5.45;;;2.65;;
21955;SDS011;11142;49.930;8.606;2024-01-06T06:18:41;6.18;;;2.78;;
21955;SDS011;11142;49.930;8.606;2024-01-06T06:21:11;5.22;;;2.53;;
21955;SDS011;11142;49.930;8.606;2024-01-06T06:23:40;6.40;;;2.95;;
21955;SDS011;11142;49.930;8.606;2024-01-06T06:26:08;7.28;;;3.00;;
21955;SDS011;11142;49.930;8.606;2024-01-06T06:28:36;9.27;;;2.80;;
21955;SDS011;11142;49.930;8.606;2024-01-06T06:31:04;6.00;;;2.65;;
21955;SDS011;11142;49.930;8.606;2024-01-06T06:33:33;4.70;;;2.75;;
21955;SDS011;11142;49.930;8.606;2024-01-06T06:36:02;6.05;;;2.97;;
21955;SDS011;11142;49.930;8.606;2024-01-06T06:38:33;9.75;;;2.90;;
21955;SDS011;11142;49.930;8.606;2024-01-06T06:41:01;7.30;;;3.10;;
21955;SDS011;11142;49.930;8.606;2024-01-06T06:43:29;5.05;;;2.65;;
21955;SDS011;11142;49.930;8.606;2024-01-06T06:45:58;6.28;;;3.00;;
21955;SDS011;11142;49.930;8.606;2024-01-06T06:48:26;7.88;;;3.78;;
21955;SDS011;11142;49.930;8.606;2024-01-06T06:50:54;5.88;;;2.85;;
21955;SDS011;11142;49.930;8.606;2024-01-06T06:53:23;7.47;;;3.17;;
21955;SDS011;11142;49.930;8.606;2024-01-06T06:55:52;5.63;;;3.30;;
21955;SDS011;11142;49.930;8.606;2024-01-06T06:58:21;5.80;;;2.92;;
21955;SDS011;11142;49.930;8.606;2024-01-06T07:00:49;6.65;;;3.17;;
21955;SDS011;11142;49.930;8.606;2024-01-06T07:03:18;4.97;;;2.75;;
21955;SDS011;11142;49.930;8.606;2024-01-06T07:05:46;7.57;;;3.47;;
21955;SDS011;11142;49.930;8.606;2024-01-06T07:08:17;6.10;;;2.90;;
21955;SDS011;11142;49.930;8.606;2024-01-06T07:10:45;5.13;;;2.83;;
21955;SDS011;11142;49.930;8.606;2024-01-06T07:13:14;8.65;;;3.35;;
21955;SDS011;11142;49.930;8.606;2024-01-06T07:15:44;5.47;;;3.30;;
21955;SDS011;11142;49.930;8.606;2024-01-06T07:18:12;7.38;;;3.38;;
21955;SDS011;11142;49.930;8.606;2024-01-06T07:20:41;8.43;;;3.88;;
21955;SDS011;11142;49.930;8.606;2024-01-06T07:23:09;8.07;;;2.75;;
21955;SDS011;11142;49.930;8.606;2024-01-06T07:25:37;9.20;;;3.53;;
21955;SDS011;11142;49.930;8.606;2024-01-06T07:28:06;8.05;;;3.13;;
21955;SDS011;11142;49.930;8.606;2024-01-06T07:30:36;9.10;;;3.50;;
21955;SDS011;11142;49.930;8.606;2024-01-06T07:33:05;9.77;;;3.38;;
21955;SDS011;11142;49.930;8.606;2024-01-06T07:35:33;11.30;;;3.72;;
21955;SDS011;11142;49.930;8.606;2024-01-06T07:38:01;7.13;;;3.60;;
21955;SDS011;11142;49.930;8.606;2024-01-06T07:40:29;7.97;;;3.28;;
21955;SDS011;11142;49.930;8.606;2024-01-06T07:42:59;6.75;;;3.83;;
21955;SDS011;11142;49.930;8.606;2024-01-06T07:45:28;5.97;;;3.45;;
21955;SDS011;11142;49.930;8.606;2024-01-06T07:48:01;5.93;;;3.63;;
21955;SDS011;11142;49.930;8.606;2024-01-06T07:50:30;8.20;;;4.00;;
21955;SDS011;11142;49.930;8.606;2024-01-06T07:52:59;6.93;;;3.67;;
21955;SDS011;11142;49.930;8.606;2024-01-06T07:55:28;7.93;;;4.13;;
21955;SDS011;11142;49.930;8.606;2024-01-06T07:57:56;7.40;;;3.67;;
21955;SDS011;11142;49.930;8.606;2024-01-06T08:00:24;6.32;;;4.10;;
21955;SDS011;11142;49.930;8.606;2024-01-06T08:02:53;10.48;;;4.03;;
21955;SDS011;11142;49.930;8.606;2024-01-06T08:05:22;11.07;;;4.57;;
21955;SDS011;11142;49.930;8.606;2024-01-06T08:07:51;6.78;;;3.97;;
21955;SDS011;11142;49.930;8.606;2024-01-06T08:10:19;8.25;;;4.35;;
21955;SDS011;11142;49.930;8.606;2024-01-06T08:12:48;9.48;;;4.00;;
21955;SDS011;11142;49.930;8.606;2024-01-06T08:15:17;7.32;;;3.90;;
21955;SDS011;11142;49.930;8.606;2024-01-06T08:17:45;6.20;;;3.90;;
21955;SDS011;11142;49.930;8.606;2024-01-06T08:20:16;8.75;;;3.67;;
21955;SDS011;11142;49.930;8.606;2024-01-06T08:22:51;8.93;;;3.80;;
21955;SDS011;11142;49.930;8.606;2024-01-06T08:25:19;7.00;;;4.20;;
21955;SDS011;11142;49.930;8.606;2024-01-06T08:27:47;8.32;;;4.10;;
21955;SDS011;11142;49.930;8.606;2024-01-06T08:30:16;7.75;;;4.15;;
21955;SDS011;11142;49.930;8.606;2024-01-06T08:32:44;8.95;;;4.82;;
21955;SDS011;11142;49.930;8.606;2024-01-06T08:35:12;9.02;;;4.53;;
21955;SDS011;11142;49.930;8.606;2024-01-06T08:37:43;9.20;;;4.22;;
21955;SDS011;11142;49.930;8.606;2024-01-06T08:40:13;17.50;;;5.68;;
21955;SDS011;11142;49.930;8.606;2024-01-06T08:42:41;10.60;;;4.10;;
21955;SDS011;11142;49.930;8.606;2024-01-06T08:45:11;10.30;;;4.15;;
21955;SDS011;11142;49.930;8.606;2024-01-06T08:47:40;9.52;;;4.75;;
21955;SDS011;11142;49.930;8.606;2024-01-06T08:50:08;10.60;;;4.90;;
21955;SDS011;11142;49.930;8.606;2024-01-06T08:52:36;7.35;;;4.50;;
21955;SDS011;11142;49.930;8.606;2024-01-06T08:55:04;9.82;;;5.47;;
21955;SDS011;11142;49.930;8.606;2024-01-06T08:57:34;13.35;;;5.30;;
21955;SDS011;11142;49.930;8.606;2024-01-06T09:00:04;10.90;;;5.25;;
21955;SDS011;11142;49.930;8.606;2024-01-06T09:02:35;8.75;;;4.72;;
21955;SDS011;11142;49.930;8.606;2024-01-06T09:05:05;12.35;;;4.65;;
21955;SDS011;11142;49.930;8.606;2024-01-06T09:07:33;8.63;;;5.25;;
21955;SDS011;11142;49.930;8.606;2024-01-06T09:10:02;9.68;;;5.50;;
21955;SDS011;11142;49.930;8.606;2024-01-06T09:12:30;11.30;;;5.30;;
21955;SDS011;11142;49.930;8.606;2024-01-06T09:15:00;9.93;;;5.82;;
21955;SDS011;11142;49.930;8.606;2024-01-06T09:17:31;9.73;;;5.20;;
21955;SDS011;11142;49.930;8.606;2024-01-06T09:20:01;9.77;;;5.38;;
21955;SDS011;11142;49.930;8.606;2024-01-06T09:22:31;13.32;;;5.50;;
21955;SDS011;11142;49.930;8.606;2024-01-06T09:25:01;12.93;;;5.75;;
21955;SDS011;11142;49.930;8.606;2024-01-06T09:27:30;9.57;;;5.65;;
21955;SDS011;11142;49.930;8.606;2024-01-06T09:30:01;11.60;;;5.70;;
21955;SDS011;11142;49.930;8.606;2024-01-06T09:32:29;10.63;;;5.50;;
21955;SDS011;11142;49.930;8.606;2024-01-06T09:34:58;14.80;;;5.97;;
21955;SDS011;11142;49.930;8.606;2024-01-06T09:37:27;10.98;;;5.97;;
21955;SDS011;11142;49.930;8.606;2024-01-06T09:39:56;12.73;;;5.25;;
21955;SDS011;11142;49.930;8.606;2024-01-06T09:42:24;10.50;;;5.50;;
21955;SDS011;11142;49.930;8.606;2024-01-06T09:44:53;12.25;;;6.35;;
21955;SDS011;11142;49.930;8.606;2024-01-06T09:47:23;15.68;;;6.03;;
21955;SDS011;11142;49.930;8.606;2024-01-06T09:49:56;16.23;;;5.65;;
21955;SDS011;11142;49.930;8.606;2024-01-06T09:52:28;14.27;;;6.45;;
21955;SDS011;11142;49.930;8.606;2024-01-06T09:55:01;9.95;;;5.93;;
21955;SDS011;11142;49.930;8.606;2024-01-06T09:57:33;14.20;;;5.85;;
21955;SDS011;11142;49.930;8.606;2024-01-06T10:00:01;10.23;;;5.93;;
21955;SDS011;11142;49.930;8.606;2024-01-06T10:02:52;9.88;;;5.45;;
21955;SDS011;11142;49.930;8.606;2024-01-06T10:05:21;13.98;;;5.70;;
21955;SDS011;11142;49.930;8.606;2024-01-06T10:07:50;11.95;;;6.25;;
21955;SDS011;11142;49.930;8.606;2024-01-06T10:10:18;18.65;;;7.28;;
21955;SDS011;11142;49.930;8.606;2024-01-06T10:12:48;14.60;;;6.22;;
21955;SDS011;11142;49.930;8.606;2024-01-06T10:15:22;14.70;;;6.57;;
21955;SDS011;11142;49.930;8.606;2024-01-06T10:17:53;16.23;;;7.45;;
21955;SDS011;11142;49.930;8.606;2024-01-06T10:20:24;12.65;;;7.35;;
21955;SDS011;11142;49.930;8.606;2024-01-06T10:22:53;11.55;;;6.25;;
21955;SDS011;11142;49.930;8.606;2024-01-06T10:25:22;14.02;;;6.53;;
21955;SDS011;11142;49.930;8.606;2024-01-06T10:27:52;14.98;;;6.32;;
21955;SDS011;11142;49.930;8.606;2024-01-06T10:30:20;15.57;;;6.00;;
21955;SDS011;11142;49.930;8.606;2024-01-06T10:32:49;10.05;;;6.25;;
21955;SDS011;11142;49.930;8.606;2024-01-06T10:35:20;13.02;;;6.40;;
21955;SDS011;11142;49.930;8.606;2024-01-06T10:37:48;13.05;;;6.60;;
21955;SDS011;11142;49.930;8.606;2024-01-06T10:40:16;16.13;;;5.93;;
21955;SDS011;11142;49.930;8.606;2024-01-06T10:42:47;11.35;;;5.93;;
21955;SDS011;11142;49.930;8.606;2024-01-06T10:45:15;12.63;;;6.20;;
21955;SDS011;11142;49.930;8.606;2024-01-06T10:47:44;9.10;;;6.07;;
21955;SDS011;11142;49.930;8.606;2024-01-06T10:50:13;9.02;;;5.25;;
21955;SDS011;11142;49.930;8.606;2024-01-06T10:52:46;16.05;;;4.03;;
21955;SDS011;11142;49.930;8.606;2024-01-06T10:55:15;15.30;;;6.30;;
21955;SDS011;11142;49.930;8.606;2024-01-06T10:57:44;13.88;;;5.90;;
21955;SDS011;11142;49.930;8.606;2024-01-06T11:00:13;12.18;;;6.50;;
21955;SDS011;11142;49.930;8.606;2024-01-06T11:02:44;12.57;;;6.15;;
21955;SDS011;11142;49.930;8.606;2024-01-06T11:05:14;12.27;;;6.20;;
21955;SDS011;11142;49.930;8.606;2024-01-06T11:07:43;11.30;;;6.35;;
21955;SDS011;11142;49.930;8.606;2024-01-06T11:10:15;12.68;;;6.65;;
21955;SDS011;11142;49.930;8.606;2024-01-06T11:12:45;14.25;;;6.45;;
21955;SDS011;11142;49.930;8.606;2024-01-06T11:18:30;13.25;;;7.18;;
21955;SDS011;11142;49.930;8.606;2024-01-06T11:21:17;12.23;;;6.95;;
21955;SDS011;11142;49.930;8.606;2024-01-06T11:24:04;9.50;;;5.82;;
21955;SDS011;11142;49.930;8.606;2024-01-06T11:26:43;13.13;;;6.00;;
21955;SDS011;11142;49.930;8.606;2024-01-06T11:29:12;12.27;;;6.10;;
21955;SDS011;11142;49.930;8.606;2024-01-06T11:34:48;13.00;;;6.38;;
21955;SDS011;11142;49.930;8.606;2024-01-06T11:37:18;12.45;;;6.38;;
21955;SDS011;11142;49.930;8.606;2024-01-06T11:39:47;11.15;;;5.28;;
21955;SDS011;11142;49.930;8.606;2024-01-06T11:42:17;11.23;;;6.82;;
21955;SDS011;11142;49.930;8.606;2024-01-06T11:44:49;10.30;;;5.57;;
21955;SDS011;11142;49.930;8.606;2024-01-06T11:47:20;12.63;;;5.90;;
21955;SDS011;11142;49.930;8.606;2024-01-06T11:49:52;15.93;;;6.32;;
21955;SDS011;11142;49.930;8.606;2024-01-06T11:52:25;11.02;;;5.63;;
21955;SDS011;11142;49.930;8.606;2024-01-06T11:54:54;10.95;;;5.75;;
21955;SDS011;11142;49.930;8.606;2024-01-06T11:57:26;15.00;;;5.65;;
21955;SDS011;11142;49.930;8.606;2024-01-06T11:59:56;11.80;;;5.22;;
21955;SDS011;11142;49.930;8.606;2024-01-06T12:02:24;12.25;;;6.30;;
21955;SDS011;11142;49.930;8.606;2024-01-06T12:04:54;10.82;;;6.22;;
21955;SDS011;11142;49.930;8.606;2024-01-06T12:07:22;9.60;;;5.57;;
21955;SDS011;11142;49.930;8.606;2024-01-06T12:10:00;11.05;;;6.28;;
21955;SDS011;11142;49.930;8.606;2024-01-06T12:12:30;13.57;;;6.13;;
21955;SDS011;11142;49.930;8.606;2024-01-06T12:15:01;19.90;;;8.60;;
21955;SDS011;11142;49.930;8.606;2024-01-06T12:17:31;14.15;;;7.85;;
21955;SDS011;11142;49.930;8.606;2024-01-06T12:19:59;15.45;;;7.03;;
21955;SDS011;11142;49.930;8.606;2024-01-06T12:22:28;18.25;;;6.30;;
21955;SDS011;11142;49.930;8.606;2024-01-06T12:24:58;9.48;;;5.32;;
21955;SDS011;11142;49.930;8.606;2024-01-06T12:27:27;12.00;;;5.05;;
21955;SDS011;11142;49.930;8.606;2024-01-06T12:29:57;9.75;;;5.10;;
21955;SDS011;11142;49.930;8.606;2024-01-06T12:32:26;10.90;;;5.40;;
21955;SDS011;11142;49.930;8.606;2024-01-06T12:34:54;9.65;;;4.85;;
21955;SDS011;11142;49.930;8.606;2024-01-06T12:37:23;10.43;;;5.70;;
21955;SDS011;11142;49.930;8.606;2024-01-06T12:39:51;7.88;;;5.43;;
21955;SDS011;11142;49.930;8.606;2024-01-06T12:42:19;11.30;;;5.78;;
21955;SDS011;11142;49.930;8.606;2024-01-06T12:44:53;11.93;;;5.55;;
21955;SDS011;11142;49.930;8.606;2024-01-06T12:47:23;12.48;;;5.90;;
21955;SDS011;11142;49.930;8.606;2024-01-06T12:49:51;9.52;;;5.75;;
21955;SDS011;11142;49.930;8.606;2024-01-06T12:52:25;9.55;;;5.43;;
21955;SDS011;11142;49.930;8.606;2024-01-06T12:54:54;11.88;;;5.85;;
21955;SDS011;11142;49.930;8.606;2024-01-06T12:57:22;10.57;;;5.70;;
21955;SDS011;11142;49.930;8.606;2024-01-06T12:59:51;10.68;;;5.35;;
21955;SDS011;11142;49.930;8.606;2024-01-06T13:02:22;10.73;;;5.57;;
21955;SDS011;11142;49.930;8.606;2024-01-06T13:04:51;11.02;;;5.60;;
21955;SDS011;11142;49.930;8.606;2024-01-06T13:07:21;14.45;;;6.20;;
21955;SDS011;11142;49.930;8.606;2024-01-06T13:09:52;12.02;;;6.53;;
21955;SDS011;11142;49.930;8.606;2024-01-06T13:12:21;9.15;;;6.00;;
21955;SDS011;11142;49.930;8.606;2024-01-06T13:14:50;11.65;;;5.57;;
21955;SDS011;11142;49.930;8.606;2024-01-06T13:17:19;9.95;;;5.75;;
21955;SDS011;11142;49.930;8.606;2024-01-06T13:19:50;10.98;;;5.55;;
21955;SDS011;11142;49.930;8.606;2024-01-06T13:22:23;13.93;;;5.35;;
21955;SDS011;11142;49.930;8.606;2024-01-06T13:24:52;8.30;;;5.35;;
21955;SDS011;11142;49.930;8.606;2024-01-06T13:27:25;10.15;;;6.20;;
21955;SDS011;11142;49.930;8.606;2024-01-06T13:29:54;10.20;;;5.45;;
21955;SDS011;11142;49.930;8.606;2024-01-06T13:32:22;12.10;;;5.63;;
21955;SDS011;11142;49.930;8.606;2024-01-06T13:34:52;9.55;;;5.15;;
21955;SDS011;11142;49.930;8.606;2024-01-06T13:37:26;12.20;;;6.50;;
21955;SDS011;11142;49.930;8.606;2024-01-06T13:39:54;13.70;;;6.07;;
21955;SDS011;11142;49.930;8.606;2024-01-06T13:42:23;13.77;;;5.60;;
21955;SDS011;11142;49.930;8.606;2024-01-06T13:44:51;11.23;;;5.63;;
21955;SDS011;11142;49.930;8.606;2024-01-06T13:47:21;10.45;;;5.85;;
21955;SDS011;11142;49.930;8.606;2024-01-06T13:49:50;11.13;;;6.45;;
21955;SDS011;11142;49.930;8.606;2024-01-06T13:52:20;10.82;;;5.97;;
21955;SDS011;11142;49.930;8.606;2024-01-06T13:54:48;10.98;;;6.00;;
21955;SDS011;11142;49.930;8.606;2024-01-06T13:57:17;12.63;;;6.78;;
21955;SDS011;11142;49.930;8.606;2024-01-06T13:59:45;15.93;;;6.78;;
21955;SDS011;11142;49.930;8.606;2024-01-06T14:02:13;14.80;;;7.03;;
21955;SDS011;11142;49.930;8.606;2024-01-06T14:04:42;15.82;;;7.15;;
21955;SDS011;11142;49.930;8.606;2024-01-06T14:07:11;11.57;;;6.68;;
21955;SDS011;11142;49.930;8.606;2024-01-06T14:09:42;14.40;;;7.10;;
21955;SDS011;11142;49.930;8.606;2024-01-06T14:12:10;16.35;;;7.43;;
21955;SDS011;11142;49.930;8.606;2024-01-06T14:14:42;15.02;;;7.10;;
21955;SDS011;11142;49.930;8.606;2024-01-06T14:17:10;14.93;;;7.38;;
21955;SDS011;11142;49.930;8.606;2024-01-06T14:19:38;16.63;;;7.28;;
21955;SDS011;11142;49.930;8.606;2024-01-06T14:22:11;16.58;;;8.38;;
21955;SDS011;11142;49.930;8.606;2024-01-06T14:24:43;14.13;;;7.55;;
21955;SDS011;11142;49.930;8.606;2024-01-06T14:27:12;16.70;;;7.15;;
21955;SDS011;11142;49.930;8.606;2024-01-06T14:29:42;15.57;;;7.22;;
21955;SDS011;11142;49.930;8.606;2024-01-06T14:32:11;14.38;;;7.65;;
21955;SDS011;11142;49.930;8.606;2024-01-06T14:34:41;14.13;;;7.50;;
21955;SDS011;11142;49.930;8.606;2024-01-06T14:37:10;15.73;;;7.57;;
21955;SDS011;11142;49.930;8.606;2024-01-06T14:39:39;14.95;;;7.25;;
21955;SDS011;11142;49.930;8.606;2024-01-06T14:42:12;15.20;;;7.55;;
21955;SDS011;11142;49.930;8.606;2024-01-06T14:44:43;14.45;;;7.43;;
21955;SDS011;11142;49.930;8.606;2024-01-06T14:47:11;17.60;;;7.88;;
21955;SDS011;11142;49.930;8.606;2024-01-06T14:49:43;18.60;;;7.35;;
21955;SDS011;11142;49.930;8.606;2024-01-06T14:52:11;13.75;;;7.85;;
21955;SDS011;11142;49.930;8.606;2024-01-06T14:54:40;16.10;;;7.22;;
21955;SDS011;11142;49.930;8.606;2024-01-06T14:57:08;14.18;;;6.95;;
21955;SDS011;11142;49.930;8.606;2024-01-06T14:59:38;19.83;;;10.95;;
21955;SDS011;11142;49.930;8.606;2024-01-06T15:02:06;24.75;;;11.65;;